createdAt,value
2023-04-13T00:03:24.194Z,15.43
2023-04-13T00:10:25.930Z,18.63
2023-04-13T00:17:27.487Z,15.82
2023-04-13T00:24:29.022Z,11.63
2023-04-13T00:31:30.762Z,23.17
2023-04-13T00:38:32.417Z,37.47
2023-04-13T00:45:37.766Z,39.63
2023-04-13T00:52:39.562Z,46.13
2023-04-13T00:59:41.128Z,90.93
2023-04-13T01:06:45.087Z,30.70
2023-04-13T01:14:23.184Z,81.68
2023-04-13T01:21:27.663Z,72.97
2023-04-13T01:28:29.906Z,61.75
2023-04-13T01:35:31.605Z,51.63
2023-04-13T01:42:33.633Z,34.78
2023-04-13T01:49:35.789Z,37.85
2023-04-13T01:57:02.058Z,25.88
2023-04-13T02:04:04.268Z,43.30
2023-04-13T02:11:07.833Z,88.30
2023-04-13T02:18:10.517Z,82.57
2023-04-13T02:25:12.607Z,86.60
2023-04-13T02:32:14.462Z,46.50
2023-04-13T02:39:16.060Z,59.88
2023-04-13T02:46:18.088Z,98.65
2023-04-13T02:53:20.968Z,98.03
2023-04-13T03:00:28.551Z,18.00
2023-04-13T03:07:34.476Z,24.75
2023-04-13T03:14:37.971Z,67.45
2023-04-13T03:21:45.656Z,102.20
2023-04-13T03:28:51.538Z,62.13
2023-04-13T03:35:53.971Z,68.25
2023-04-13T03:50:10.442Z,106.53
2023-04-13T03:57:12.502Z,57.45
2023-04-13T04:04:14.888Z,96.25
2023-04-13T04:11:17.320Z,95.35
2023-04-13T04:18:18.926Z,86.57
2023-04-13T04:25:27.467Z,74.53
2023-04-13T04:32:29.595Z,87.03
2023-04-13T04:39:34.916Z,74.07
2023-04-13T04:46:45.471Z,123.07
2023-04-13T04:53:49.798Z,117.68
2023-04-13T05:00:53.141Z,111.53
2023-04-13T05:07:54.835Z,126.75
2023-04-13T05:14:57.057Z,101.53
2023-04-13T05:21:59.399Z,128.07
2023-04-13T05:29:01.392Z,107.38
2023-04-13T05:36:08.301Z,115.18
2023-04-13T05:43:12.166Z,109.60
2023-04-13T05:50:20.051Z,99.63
2023-04-13T05:57:21.806Z,109.70
2023-04-13T06:04:27.249Z,102.35
2023-04-13T06:11:29.536Z,50.28
2023-04-13T06:18:31.075Z,83.32
2023-04-13T06:25:32.732Z,129.15
2023-04-13T06:32:35.432Z,124.43
2023-04-13T06:39:38.629Z,61.30
2023-04-13T06:46:43.060Z,51.45
2023-04-13T06:53:47.429Z,50.58
2023-04-13T07:00:49.150Z,68.55
2023-04-13T07:07:51.670Z,99.53
2023-04-13T07:14:54.626Z,71.05
2023-04-13T07:21:59.874Z,88.32
2023-04-13T07:29:01.730Z,100.00
2023-04-13T07:36:08.706Z,103.57
2023-04-13T07:43:11.292Z,69.00
2023-04-13T07:50:16.550Z,31.73
2023-04-13T07:57:21.336Z,93.93
2023-04-13T08:04:29.433Z,47.63
2023-04-13T08:11:31.609Z,17.95
2023-04-13T08:18:39.806Z,12.73
2023-04-13T08:25:44.606Z,11.73
2023-04-13T08:32:46.636Z,12.68
2023-04-13T08:39:48.392Z,12.57
2023-04-13T08:46:53.336Z,7.85
2023-04-13T08:54:02.561Z,8.80
2023-04-13T09:01:13.487Z,9.27
2023-04-13T09:08:16.946Z,8.20
2023-04-13T09:15:21.149Z,8.95
2023-04-13T09:22:42.010Z,6.45
2023-04-13T09:29:53.640Z,8.48
2023-04-13T09:36:57.312Z,7.00
2023-04-13T09:44:01.233Z,28.80
2023-04-13T09:51:05.554Z,11.45
2023-04-13T09:58:14.722Z,20.63
2023-04-13T10:05:17.405Z,6.50
2023-04-13T10:12:18.995Z,7.57
2023-04-13T10:19:21.894Z,4.65
2023-04-13T10:26:32.480Z,6.20
2023-04-13T10:33:34.077Z,7.25
2023-04-13T10:40:45.551Z,6.93
2023-04-13T10:47:47.523Z,9.10
2023-04-13T10:54:49.237Z,21.67
2023-04-13T11:01:50.896Z,5.20
2023-04-13T11:08:59.784Z,8.52
2023-04-13T11:16:04.698Z,6.90
2023-04-13T11:23:07.784Z,18.17
2023-04-13T11:30:11.095Z,5.72
2023-04-13T11:37:12.709Z,5.00
2023-04-13T11:44:14.714Z,6.18
2023-04-13T11:51:16.420Z,6.72
2023-04-13T11:58:18.940Z,19.83
2023-04-13T12:05:32.481Z,12.43
2023-04-13T12:19:41.694Z,15.38
2023-04-13T12:33:51.388Z,9.13
2023-04-13T12:40:59.618Z,8.52
2023-04-13T12:48:02.277Z,5.00
2023-04-13T12:55:03.979Z,6.03
2023-04-13T13:02:06.094Z,6.55
2023-04-13T13:09:07.751Z,5.47
2023-04-13T13:16:09.423Z,7.75
2023-04-13T13:23:12.124Z,5.55
2023-04-13T13:30:14.321Z,4.95
2023-04-13T13:37:16.013Z,4.30
2023-04-13T13:44:20.996Z,8.23
2023-04-13T13:51:22.591Z,8.38
2023-04-13T13:58:24.348Z,9.52
2023-04-13T14:05:26.370Z,9.05
2023-04-13T14:12:27.938Z,7.65
2023-04-13T14:19:29.496Z,5.15
2023-04-13T14:26:31.086Z,6.53
2023-04-13T14:33:32.641Z,4.88
2023-04-13T14:40:34.547Z,5.60
2023-04-13T14:47:36.219Z,5.38
2023-04-13T14:54:38.647Z,8.25
2023-04-13T15:01:41.053Z,8.50
2023-04-13T15:08:42.718Z,7.07
2023-04-13T15:15:44.669Z,6.10
2023-04-13T15:22:46.209Z,4.00
2023-04-13T15:29:47.781Z,14.65
2023-04-13T15:36:49.318Z,6.32
2023-04-13T15:43:51.097Z,3.95
2023-04-13T15:50:59.460Z,5.40
2023-04-13T15:58:03.554Z,8.07
2023-04-13T16:05:05.176Z,5.70
2023-04-13T16:12:11.215Z,11.05
2023-04-13T16:19:13.293Z,7.60
2023-04-13T16:26:14.837Z,4.65
2023-04-13T16:33:16.568Z,7.47
2023-04-13T16:40:18.769Z,5.70
2023-04-13T16:47:21.365Z,6.85
2023-04-13T16:54:23.069Z,11.02
2023-04-13T17:01:28.111Z,6.88
2023-04-13T17:08:31.556Z,6.97
2023-04-13T17:15:33.243Z,7.85
2023-04-13T17:22:34.962Z,22.55
2023-04-13T17:29:37.897Z,17.60
2023-04-13T17:36:39.448Z,7.03
2023-04-13T17:43:41.050Z,5.40
2023-04-13T17:50:42.666Z,9.52
2023-04-13T17:57:44.215Z,7.75
2023-04-13T18:04:46.614Z,10.25
2023-04-13T18:11:48.133Z,9.30
2023-04-13T18:18:51.269Z,23.75
2023-04-13T18:25:52.930Z,22.05
2023-04-13T18:32:54.690Z,25.45
2023-04-13T18:39:57.608Z,14.65
2023-04-13T18:46:59.300Z,21.10
2023-04-13T18:54:02.025Z,12.57
2023-04-13T19:01:03.777Z,8.52
2023-04-13T19:08:09.710Z,48.58
2023-04-13T19:15:11.539Z,21.88
2023-04-13T19:22:13.406Z,15.05
2023-04-13T19:29:15.463Z,17.67
2023-04-13T19:36:17.116Z,13.13
2023-04-13T19:43:22.592Z,13.60
2023-04-13T19:50:24.126Z,16.80
2023-04-13T19:57:25.836Z,14.70
2023-04-13T20:04:27.549Z,18.10
2023-04-13T20:11:29.225Z,13.57
2023-04-13T20:18:30.830Z,20.33
2023-04-13T20:25:32.389Z,12.93
2023-04-13T20:32:34.072Z,18.65
2023-04-13T20:39:37.852Z,119.13
2023-04-13T20:46:41.965Z,16.60
2023-04-13T20:53:43.852Z,19.60
2023-04-13T21:00:45.650Z,12.60
2023-04-13T21:07:47.223Z,15.00
2023-04-13T21:14:49.143Z,16.95
2023-04-13T21:21:52.049Z,15.40
2023-04-13T21:28:53.590Z,11.25
2023-04-13T21:35:55.106Z,14.10
2023-04-13T21:42:56.612Z,14.48
2023-04-13T21:49:58.149Z,21.58
2023-04-13T21:56:59.677Z,20.70
2023-04-13T22:04:01.555Z,16.50
2023-04-13T22:11:03.278Z,18.25
2023-04-13T22:18:05.001Z,15.38
2023-04-13T22:25:06.765Z,11.85
2023-04-13T22:32:08.300Z,17.98
2023-04-13T22:39:09.834Z,15.13
2023-04-13T22:46:11.455Z,19.42
2023-04-13T22:53:13.056Z,18.98
2023-04-13T23:00:14.813Z,13.80
2023-04-13T23:07:16.340Z,14.45
2023-04-13T23:14:18.572Z,18.92
2023-04-13T23:21:20.327Z,15.10
2023-04-13T23:28:21.965Z,15.98
2023-04-13T23:35:23.510Z,13.65
2023-04-13T23:42:25.032Z,10.70
2023-04-13T23:49:26.586Z,11.45
2023-04-13T23:56:28.344Z,12.25
